sensor_id;sensor_type;location;lat;lon;timestamp;P1;durP1;ratioP1;P2;durP2;ratioP2
16387;SDS011;8303;53.446;9.988;2022-09-09T04:48:24;37.77;;;33.63;;
16387;SDS011;8303;53.446;9.988;2022-09-09T04:50:56;38.37;;;32.23;;
16387;SDS011;8303;53.446;9.988;2022-09-09T04:53:24;34.60;;;30.30;;
16387;SDS011;8303;53.446;9.988;2022-09-09T04:55:52;41.17;;;29.40;;
16387;SDS011;8303;53.446;9.988;2022-09-09T04:58:19;36.87;;;31.07;;
16387;SDS011;8303;53.446;9.988;2022-09-09T05:00:47;31.30;;;25.40;;
16387;SDS011;8303;53.446;9.988;2022-09-09T05:03:14;33.73;;;24.73;;
16387;SDS011;8303;53.446;9.988;2022-09-09T05:05:42;35.10;;;26.80;;
16387;SDS011;8303;53.446;9.988;2022-09-09T05:08:10;36.27;;;26.00;;
16387;SDS011;8303;53.446;9.988;2022-09-09T05:10:38;31.00;;;25.43;;
16387;SDS011;8303;53.446;9.988;2022-09-09T05:13:06;36.67;;;29.90;;
16387;SDS011;8303;53.446;9.988;2022-09-09T05:15:33;36.60;;;32.57;;
16387;SDS011;8303;53.446;9.988;2022-09-09T05:18:01;38.67;;;34.80;;
16387;SDS011;8303;53.446;9.988;2022-09-09T05:20:28;43.47;;;39.23;;
16387;SDS011;8303;53.446;9.988;2022-09-09T05:22:56;46.93;;;42.77;;
16387;SDS011;8303;53.446;9.988;2022-09-09T05:25:23;42.00;;;37.27;;
16387;SDS011;8303;53.446;9.988;2022-09-09T05:27:51;51.63;;;46.93;;
16387;SDS011;8303;53.446;9.988;2022-09-09T05:30:18;57.53;;;52.50;;
16387;SDS011;8303;53.446;9.988;2022-09-09T05:32:45;59.93;;;54.30;;
16387;SDS011;8303;53.446;9.988;2022-09-09T05:35:12;65.63;;;59.97;;
16387;SDS011;8303;53.446;9.988;2022-09-09T05:37:39;81.30;;;74.43;;
16387;SDS011;8303;53.446;9.988;2022-09-09T05:40:08;94.20;;;86.97;;
16387;SDS011;8303;53.446;9.988;2022-09-09T05:42:35;82.07;;;74.97;;
16387;SDS011;8303;53.446;9.988;2022-09-09T05:45:03;92.23;;;84.97;;
16387;SDS011;8303;53.446;9.988;2022-09-09T05:47:30;104.33;;;96.63;;
16387;SDS011;8303;53.446;9.988;2022-09-09T05:49:57;112.87;;;104.53;;
16387;SDS011;8303;53.446;9.988;2022-09-09T05:52:24;119.60;;;110.83;;
16387;SDS011;8303;53.446;9.988;2022-09-09T05:54:52;131.37;;;121.83;;
16387;SDS011;8303;53.446;9.988;2022-09-09T05:57:21;141.27;;;130.97;;
16387;SDS011;8303;53.446;9.988;2022-09-09T05:59:48;155.00;;;143.80;;
16387;SDS011;8303;53.446;9.988;2022-09-09T06:02:14;136.83;;;127.23;;
16387;SDS011;8303;53.446;9.988;2022-09-09T06:04:41;144.20;;;133.17;;
16387;SDS011;8303;53.446;9.988;2022-09-09T06:07:08;131.23;;;121.70;;
16387;SDS011;8303;53.446;9.988;2022-09-09T06:09:35;112.27;;;103.73;;
16387;SDS011;8303;53.446;9.988;2022-09-09T06:12:02;107.50;;;99.43;;
16387;SDS011;8303;53.446;9.988;2022-09-09T06:14:30;83.97;;;77.63;;
16387;SDS011;8303;53.446;9.988;2022-09-09T06:16:57;113.37;;;105.40;;
16387;SDS011;8303;53.446;9.988;2022-09-09T06:19:24;95.40;;;88.30;;
16387;SDS011;8303;53.446;9.988;2022-09-09T06:21:51;99.93;;;93.00;;
16387;SDS011;8303;53.446;9.988;2022-09-09T06:24:18;119.13;;;110.67;;
16387;SDS011;8303;53.446;9.988;2022-09-09T06:26:45;158.13;;;147.57;;
16387;SDS011;8303;53.446;9.988;2022-09-09T06:29:11;156.57;;;146.53;;
16387;SDS011;8303;53.446;9.988;2022-09-09T06:31:40;167.43;;;156.67;;
16387;SDS011;8303;53.446;9.988;2022-09-09T06:34:07;207.00;;;193.67;;
16387;SDS011;8303;53.446;9.988;2022-09-09T06:36:35;203.53;;;190.33;;
16387;SDS011;8303;53.446;9.988;2022-09-09T06:39:03;189.63;;;177.43;;
16387;SDS011;8303;53.446;9.988;2022-09-09T06:41:30;235.57;;;220.40;;
16387;SDS011;8303;53.446;9.988;2022-09-09T06:43:58;243.00;;;227.57;;
16387;SDS011;8303;53.446;9.988;2022-09-09T06:46:26;288.03;;;269.73;;
16387;SDS011;8303;53.446;9.988;2022-09-09T06:48:56;326.10;;;304.43;;
16387;SDS011;8303;53.446;9.988;2022-09-09T06:51:26;318.37;;;298.37;;
16387;SDS011;8303;53.446;9.988;2022-09-09T06:53:55;317.40;;;297.47;;
16387;SDS011;8303;53.446;9.988;2022-09-09T06:56:23;320.67;;;300.50;;
16387;SDS011;8303;53.446;9.988;2022-09-09T06:58:53;300.03;;;281.17;;
16387;SDS011;8303;53.446;9.988;2022-09-09T07:01:21;297.77;;;279.03;;
16387;SDS011;8303;53.446;9.988;2022-09-09T07:03:50;290.40;;;272.33;;
16387;SDS011;8303;53.446;9.988;2022-09-09T07:06:20;296.00;;;278.10;;
16387;SDS011;8303;53.446;9.988;2022-09-09T07:08:49;245.17;;;229.80;;
16387;SDS011;8303;53.446;9.988;2022-09-09T07:11:17;246.03;;;230.87;;
16387;SDS011;8303;53.446;9.988;2022-09-09T07:13:45;223.50;;;210.03;;
16387;SDS011;8303;53.446;9.988;2022-09-09T07:16:13;209.93;;;197.47;;
16387;SDS011;8303;53.446;9.988;2022-09-09T07:18:40;211.50;;;198.87;;
16387;SDS011;8303;53.446;9.988;2022-09-09T07:21:08;242.57;;;227.73;;
16387;SDS011;8303;53.446;9.988;2022-09-09T07:23:38;210.43;;;197.90;;
16387;SDS011;8303;53.446;9.988;2022-09-09T07:26:07;238.53;;;224.03;;
16387;SDS011;8303;53.446;9.988;2022-09-09T07:28:35;213.73;;;201.23;;
16387;SDS011;8303;53.446;9.988;2022-09-09T07:31:03;221.50;;;208.60;;
16387;SDS011;8303;53.446;9.988;2022-09-09T07:33:31;218.30;;;205.43;;
16387;SDS011;8303;53.446;9.988;2022-09-09T07:36:03;231.40;;;218.17;;
16387;SDS011;8303;53.446;9.988;2022-09-09T07:38:32;212.90;;;200.63;;
16387;SDS011;8303;53.446;9.988;2022-09-09T07:41:04;259.65;;;244.10;;
16387;SDS011;8303;53.446;9.988;2022-09-09T07:43:34;225.77;;;212.50;;
16387;SDS011;8303;53.446;9.988;2022-09-09T07:46:01;243.10;;;228.50;;
16387;SDS011;8303;53.446;9.988;2022-09-09T07:48:28;201.80;;;190.17;;
16387;SDS011;8303;53.446;9.988;2022-09-09T07:51:03;129.57;;;122.22;;
16387;SDS011;8303;53.446;9.988;2022-09-09T07:53:32;87.00;;;82.07;;
16387;SDS011;8303;53.446;9.988;2022-09-09T07:56:02;83.73;;;79.00;;
16387;SDS011;8303;53.446;9.988;2022-09-09T07:58:31;80.50;;;75.82;;
16387;SDS011;8303;53.446;9.988;2022-09-09T08:00:58;73.43;;;69.05;;
16387;SDS011;8303;53.446;9.988;2022-09-09T08:03:24;66.88;;;63.03;;
16387;SDS011;8303;53.446;9.988;2022-09-09T08:05:51;49.22;;;46.40;;
16387;SDS011;8303;53.446;9.988;2022-09-09T08:08:18;40.40;;;37.80;;
16387;SDS011;8303;53.446;9.988;2022-09-09T08:10:45;29.52;;;27.70;;
16387;SDS011;8303;53.446;9.988;2022-09-09T08:13:13;22.90;;;21.33;;
16387;SDS011;8303;53.446;9.988;2022-09-09T08:15:40;29.23;;;27.20;;
16387;SDS011;8303;53.446;9.988;2022-09-09T08:18:08;14.55;;;13.60;;
16387;SDS011;8303;53.446;9.988;2022-09-09T08:20:35;14.88;;;13.80;;
16387;SDS011;8303;53.446;9.988;2022-09-09T08:23:02;10.43;;;9.55;;
16387;SDS011;8303;53.446;9.988;2022-09-09T08:25:30;10.10;;;9.07;;
16387;SDS011;8303;53.446;9.988;2022-09-09T08:27:56;14.82;;;13.48;;
16387;SDS011;8303;53.446;9.988;2022-09-09T08:30:24;17.73;;;16.40;;
16387;SDS011;8303;53.446;9.988;2022-09-09T08:32:51;15.05;;;14.02;;
16387;SDS011;8303;53.446;9.988;2022-09-09T08:35:18;10.45;;;9.45;;
16387;SDS011;8303;53.446;9.988;2022-09-09T08:37:45;12.38;;;11.30;;
16387;SDS011;8303;53.446;9.988;2022-09-09T08:40:16;9.93;;;6.90;;
16387;SDS011;8303;53.446;9.988;2022-09-09T08:42:47;7.75;;;6.20;;
16387;SDS011;8303;53.446;9.988;2022-09-09T08:45:19;7.20;;;6.50;;
16387;SDS011;8303;53.446;9.988;2022-09-09T08:47:57;8.20;;;7.20;;
16387;SDS011;8303;53.446;9.988;2022-09-09T08:50:42;5.78;;;3.75;;
16387;SDS011;8303;53.446;9.988;2022-09-09T08:53:14;6.80;;;6.20;;
16387;SDS011;8303;53.446;9.988;2022-09-09T08:55:46;8.98;;;8.35;;
16387;SDS011;8303;53.446;9.988;2022-09-09T08:58:15;6.10;;;4.00;;
16387;SDS011;8303;53.446;9.988;2022-09-09T09:00:47;7.20;;;3.53;;
16387;SDS011;8303;53.446;9.988;2022-09-09T09:03:27;5.55;;;4.15;;
16387;SDS011;8303;53.446;9.988;2022-09-09T09:06:01;5.18;;;4.00;;
16387;SDS011;8303;53.446;9.988;2022-09-09T09:08:36;4.72;;;3.22;;
16387;SDS011;8303;53.446;9.988;2022-09-09T09:11:08;6.43;;;4.40;;
16387;SDS011;8303;53.446;9.988;2022-09-09T09:13:37;7.70;;;7.03;;
16387;SDS011;8303;53.446;9.988;2022-09-09T09:16:13;13.18;;;12.18;;
16387;SDS011;8303;53.446;9.988;2022-09-09T09:18:45;5.60;;;5.07;;
16387;SDS011;8303;53.446;9.988;2022-09-09T09:21:13;4.90;;;3.70;;
16387;SDS011;8303;53.446;9.988;2022-09-09T09:23:47;3.63;;;3.33;;
16387;SDS011;8303;53.446;9.988;2022-09-09T09:26:20;3.33;;;2.60;;
16387;SDS011;8303;53.446;9.988;2022-09-09T09:28:52;5.03;;;2.72;;
16387;SDS011;8303;53.446;9.988;2022-09-09T09:31:23;4.30;;;3.42;;
16387;SDS011;8303;53.446;9.988;2022-09-09T09:33:52;5.20;;;3.30;;
16387;SDS011;8303;53.446;9.988;2022-09-09T09:36:20;4.05;;;3.20;;
16387;SDS011;8303;53.446;9.988;2022-09-09T09:38:53;5.53;;;3.78;;
16387;SDS011;8303;53.446;9.988;2022-09-09T09:41:34;7.40;;;6.82;;
16387;SDS011;8303;53.446;9.988;2022-09-09T09:44:02;8.60;;;7.93;;
16387;SDS011;8303;53.446;9.988;2022-09-09T09:46:31;17.80;;;16.52;;
16387;SDS011;8303;53.446;9.988;2022-09-09T09:48:58;17.60;;;16.45;;
16387;SDS011;8303;53.446;9.988;2022-09-09T09:51:26;25.05;;;23.42;;
16387;SDS011;8303;53.446;9.988;2022-09-09T09:54:01;20.50;;;18.98;;
16387;SDS011;8303;53.446;9.988;2022-09-09T09:56:35;7.32;;;6.82;;
16387;SDS011;8303;53.446;9.988;2022-09-09T09:59:03;5.93;;;3.85;;
16387;SDS011;8303;53.446;9.988;2022-09-09T10:01:32;5.93;;;5.03;;
16387;SDS011;8303;53.446;9.988;2022-09-09T10:04:00;5.10;;;3.72;;
16387;SDS011;8303;53.446;9.988;2022-09-09T10:06:29;5.68;;;2.92;;
16387;SDS011;8303;53.446;9.988;2022-09-09T10:08:58;6.88;;;6.35;;
16387;SDS011;8303;53.446;9.988;2022-09-09T10:11:29;4.22;;;3.95;;
16387;SDS011;8303;53.446;9.988;2022-09-09T10:14:10;6.88;;;3.38;;
16387;SDS011;8303;53.446;9.988;2022-09-09T10:16:49;3.13;;;2.20;;
16387;SDS011;8303;53.446;9.988;2022-09-09T10:19:30;4.72;;;2.20;;
16387;SDS011;8303;53.446;9.988;2022-09-09T10:22:14;3.03;;;2.38;;
16387;SDS011;8303;53.446;9.988;2022-09-09T10:27:46;4.53;;;2.60;;
16387;SDS011;8303;53.446;9.988;2022-09-09T10:30:24;3.53;;;2.38;;
16387;SDS011;8303;53.446;9.988;2022-09-09T10:33:01;4.70;;;2.28;;
16387;SDS011;8303;53.446;9.988;2022-09-09T10:35:36;2.67;;;2.38;;
16387;SDS011;8303;53.446;9.988;2022-09-09T10:38:13;5.07;;;1.98;;
16387;SDS011;8303;53.446;9.988;2022-09-09T10:40:49;2.95;;;2.40;;
16387;SDS011;8303;53.446;9.988;2022-09-09T10:43:32;3.47;;;2.08;;
16387;SDS011;8303;53.446;9.988;2022-09-09T10:46:10;3.20;;;2.50;;
16387;SDS011;8303;53.446;9.988;2022-09-09T10:48:50;4.18;;;3.88;;
16387;SDS011;8303;53.446;9.988;2022-09-09T10:51:31;3.88;;;2.50;;
16387;SDS011;8303;53.446;9.988;2022-09-09T10:56:58;3.25;;;2.20;;
16387;SDS011;8303;53.446;9.988;2022-09-09T10:59:30;2.97;;;2.25;;
16387;SDS011;8303;53.446;9.988;2022-09-09T11:02:02;5.05;;;2.58;;
16387;SDS011;8303;53.446;9.988;2022-09-09T11:04:40;4.43;;;2.40;;
16387;SDS011;8303;53.446;9.988;2022-09-09T11:07:12;5.07;;;2.47;;
16387;SDS011;8303;53.446;9.988;2022-09-09T11:09:52;2.38;;;2.17;;
16387;SDS011;8303;53.446;9.988;2022-09-09T11:12:24;5.93;;;2.90;;
16387;SDS011;8303;53.446;9.988;2022-09-09T11:14:54;2.72;;;2.30;;
16387;SDS011;8303;53.446;9.988;2022-09-09T11:17:26;4.28;;;2.95;;
16387;SDS011;8303;53.446;9.988;2022-09-09T11:20:00;3.75;;;2.70;;
16387;SDS011;8303;53.446;9.988;2022-09-09T11:22:27;6.15;;;2.55;;
16387;SDS011;8303;53.446;9.988;2022-09-09T11:24:59;5.10;;;2.92;;
16387;SDS011;8303;53.446;9.988;2022-09-09T11:27:36;8.75;;;3.40;;
16387;SDS011;8303;53.446;9.988;2022-09-09T11:30:19;4.68;;;3.10;;
16387;SDS011;8303;53.446;9.988;2022-09-09T11:35:56;6.18;;;2.78;;
16387;SDS011;8303;53.446;9.988;2022-09-09T11:38:37;4.63;;;2.92;;
16387;SDS011;8303;53.446;9.988;2022-09-09T11:41:10;4.75;;;2.80;;
16387;SDS011;8303;53.446;9.988;2022-09-09T11:43:39;5.10;;;2.92;;
16387;SDS011;8303;53.446;9.988;2022-09-09T11:46:07;4.07;;;3.03;;
16387;SDS011;8303;53.446;9.988;2022-09-09T11:48:37;3.40;;;2.80;;
16387;SDS011;8303;53.446;9.988;2022-09-09T11:51:07;3.92;;;2.70;;
16387;SDS011;8303;53.446;9.988;2022-09-09T11:53:36;3.17;;;2.70;;
16387;SDS011;8303;53.446;9.988;2022-09-09T11:56:23;6.00;;;2.90;;
16387;SDS011;8303;53.446;9.988;2022-09-09T11:58:56;4.13;;;2.72;;
16387;SDS011;8303;53.446;9.988;2022-09-09T12:01:38;5.82;;;3.28;;
16387;SDS011;8303;53.446;9.988;2022-09-09T12:06:57;3.22;;;2.70;;
16387;SDS011;8303;53.446;9.988;2022-09-09T12:09:29;3.25;;;2.67;;
16387;SDS011;8303;53.446;9.988;2022-09-09T12:14:55;4.38;;;3.22;;
16387;SDS011;8303;53.446;9.988;2022-09-09T12:17:24;6.05;;;3.10;;
16387;SDS011;8303;53.446;9.988;2022-09-09T12:20:03;6.15;;;3.28;;
16387;SDS011;8303;53.446;9.988;2022-09-09T12:22:40;3.85;;;2.72;;
16387;SDS011;8303;53.446;9.988;2022-09-09T12:25:17;5.53;;;3.08;;
16387;SDS011;8303;53.446;9.988;2022-09-09T12:27:58;4.53;;;3.40;;
16387;SDS011;8303;53.446;9.988;2022-09-09T12:30:32;3.15;;;2.83;;
16387;SDS011;8303;53.446;9.988;2022-09-09T12:33:08;8.07;;;3.63;;
16387;SDS011;8303;53.446;9.988;2022-09-09T12:35:38;6.70;;;3.22;;
16387;SDS011;8303;53.446;9.988;2022-09-09T12:38:11;33.25;;;30.55;;
16387;SDS011;8303;53.446;9.988;2022-09-09T12:40:41;68.30;;;63.50;;
16387;SDS011;8303;53.446;9.988;2022-09-09T12:43:16;95.95;;;90.70;;
16387;SDS011;8303;53.446;9.988;2022-09-09T12:45:45;125.32;;;118.03;;
16387;SDS011;8303;53.446;9.988;2022-09-09T12:48:14;242.75;;;228.63;;
16387;SDS011;8303;53.446;9.988;2022-09-09T12:50:47;200.23;;;188.88;;
16387;SDS011;8303;53.446;9.988;2022-09-09T12:53:19;214.88;;;202.63;;
16387;SDS011;8303;53.446;9.988;2022-09-09T12:55:52;1385.32;;;999.90;;
16387;SDS011;8303;53.446;9.988;2022-09-09T12:58:22;415.38;;;390.02;;
16387;SDS011;8303;53.446;9.988;2022-09-09T13:00:50;283.98;;;267.63;;
16387;SDS011;8303;53.446;9.988;2022-09-09T13:03:20;251.55;;;236.85;;
16387;SDS011;8303;53.446;9.988;2022-09-09T13:05:47;257.75;;;242.18;;
16387;SDS011;8303;53.446;9.988;2022-09-09T13:08:15;230.60;;;216.98;;
16387;SDS011;8303;53.446;9.988;2022-09-09T13:10:46;276.33;;;260.30;;
16387;SDS011;8303;53.446;9.988;2022-09-09T13:13:20;270.95;;;255.25;;
16387;SDS011;8303;53.446;9.988;2022-09-09T13:15:49;274.30;;;258.77;;
16387;SDS011;8303;53.446;9.988;2022-09-09T13:18:19;277.77;;;261.83;;
16387;SDS011;8303;53.446;9.988;2022-09-09T13:20:49;324.95;;;305.15;;
16387;SDS011;8303;53.446;9.988;2022-09-09T13:23:18;326.42;;;305.55;;
16387;SDS011;8303;53.446;9.988;2022-09-09T13:25:54;337.85;;;316.50;;
16387;SDS011;8303;53.446;9.988;2022-09-09T13:28:23;347.75;;;325.45;;
16387;SDS011;8303;53.446;9.988;2022-09-09T13:30:58;388.45;;;362.45;;
16387;SDS011;8303;53.446;9.988;2022-09-09T13:33:30;435.48;;;406.73;;
16387;SDS011;8303;53.446;9.988;2022-09-09T13:35:59;428.50;;;400.20;;
16387;SDS011;8303;53.446;9.988;2022-09-09T13:38:30;471.05;;;439.60;;
16387;SDS011;8303;53.446;9.988;2022-09-09T13:41:00;471.25;;;438.20;;
16387;SDS011;8303;53.446;9.988;2022-09-09T13:43:29;506.40;;;472.23;;
16387;SDS011;8303;53.446;9.988;2022-09-09T13:46:00;525.35;;;488.83;;
16387;SDS011;8303;53.446;9.988;2022-09-09T13:48:28;570.05;;;530.10;;
16387;SDS011;8303;53.446;9.988;2022-09-09T13:50:55;547.35;;;509.55;;
16387;SDS011;8303;53.446;9.988;2022-09-09T13:53:23;531.08;;;494.58;;
16387;SDS011;8303;53.446;9.988;2022-09-09T13:55:51;536.83;;;498.92;;
16387;SDS011;8303;53.446;9.988;2022-09-09T13:58:19;514.38;;;478.42;;
16387;SDS011;8303;53.446;9.988;2022-09-09T14:00:47;574.33;;;534.53;;
16387;SDS011;8303;53.446;9.988;2022-09-09T14:03:15;585.60;;;544.88;;
16387;SDS011;8303;53.446;9.988;2022-09-09T14:05:42;529.65;;;494.92;;
16387;SDS011;8303;53.446;9.988;2022-09-09T14:08:11;504.52;;;471.23;;
16387;SDS011;8303;53.446;9.988;2022-09-09T14:10:42;451.55;;;421.10;;
16387;SDS011;8303;53.446;9.988;2022-09-09T14:13:10;432.47;;;404.10;;
16387;SDS011;8303;53.446;9.988;2022-09-09T14:15:37;363.50;;;341.10;;
16387;SDS011;8303;53.446;9.988;2022-09-09T14:18:04;342.02;;;320.83;;
16387;SDS011;8303;53.446;9.988;2022-09-09T14:20:31;326.85;;;306.80;;
16387;SDS011;8303;53.446;9.988;2022-09-09T14:22:58;319.33;;;299.47;;
16387;SDS011;8303;53.446;9.988;2022-09-09T14:25:24;277.50;;;260.33;;
16387;SDS011;8303;53.446;9.988;2022-09-09T14:27:51;263.20;;;247.73;;
16387;SDS011;8303;53.446;9.988;2022-09-09T14:30:19;239.17;;;224.83;;
16387;SDS011;8303;53.446;9.988;2022-09-09T14:32:46;223.17;;;210.23;;
16387;SDS011;8303;53.446;9.988;2022-09-09T14:35:13;214.43;;;201.80;;
16387;SDS011;8303;53.446;9.988;2022-09-09T14:37:40;179.57;;;169.07;;
16387;SDS011;8303;53.446;9.988;2022-09-09T14:40:07;162.90;;;153.73;;
16387;SDS011;8303;53.446;9.988;2022-09-09T14:42:34;141.83;;;134.03;;
16387;SDS011;8303;53.446;9.988;2022-09-09T14:45:01;155.17;;;146.07;;
16387;SDS011;8303;53.446;9.988;2022-09-09T14:47:29;156.80;;;147.40;;
16387;SDS011;8303;53.446;9.988;2022-09-09T14:49:56;146.17;;;137.73;;
16387;SDS011;8303;53.446;9.988;2022-09-09T14:52:23;172.47;;;162.50;;
16387;SDS011;8303;53.446;9.988;2022-09-09T14:54:50;179.00;;;168.83;;
16387;SDS011;8303;53.446;9.988;2022-09-09T14:57:17;191.40;;;180.43;;
16387;SDS011;8303;53.446;9.988;2022-09-09T14:59:44;183.60;;;173.13;;
16387;SDS011;8303;53.446;9.988;2022-09-09T15:02:11;190.47;;;179.20;;
16387;SDS011;8303;53.446;9.988;2022-09-09T15:04:40;191.40;;;180.60;;
16387;SDS011;8303;53.446;9.988;2022-09-09T15:07:07;197.20;;;185.47;;
16387;SDS011;8303;53.446;9.988;2022-09-09T15:09:33;211.37;;;199.20;;
16387;SDS011;8303;53.446;9.988;2022-09-09T15:12:02;180.67;;;170.20;;
16387;SDS011;8303;53.446;9.988;2022-09-09T15:14:29;210.67;;;198.73;;
16387;SDS011;8303;53.446;9.988;2022-09-09T15:16:56;243.83;;;227.87;;
16387;SDS011;8303;53.446;9.988;2022-09-09T15:19:23;247.80;;;233.07;;
16387;SDS011;8303;53.446;9.988;2022-09-09T15:21:51;256.90;;;241.90;;
16387;SDS011;8303;53.446;9.988;2022-09-09T15:24:19;276.73;;;260.50;;
16387;SDS011;8303;53.446;9.988;2022-09-09T15:26:46;187.35;;;176.65;;
16387;SDS011;8303;53.446;9.988;2022-09-09T15:29:12;142.43;;;134.23;;
16387;SDS011;8303;53.446;9.988;2022-09-09T15:31:40;133.35;;;125.57;;
16387;SDS011;8303;53.446;9.988;2022-09-09T15:34:07;115.30;;;109.07;;
16387;SDS011;8303;53.446;9.988;2022-09-09T15:36:35;104.15;;;98.35;;
16387;SDS011;8303;53.446;9.988;2022-09-09T15:39:04;93.38;;;88.38;;
16387;SDS011;8303;53.446;9.988;2022-09-09T15:41:32;57.35;;;54.10;;
16387;SDS011;8303;53.446;9.988;2022-09-09T15:44:00;32.95;;;31.08;;
16387;SDS011;8303;53.446;9.988;2022-09-09T15:46:28;13.70;;;12.73;;
16387;SDS011;8303;53.446;9.988;2022-09-09T15:48:57;5.32;;;4.63;;
16387;SDS011;8303;53.446;9.988;2022-09-09T15:51:28;5.20;;;4.70;;
16387;SDS011;8303;53.446;9.988;2022-09-09T15:53:56;6.38;;;4.60;;
16387;SDS011;8303;53.446;9.988;2022-09-09T15:56:25;5.75;;;4.43;;
16387;SDS011;8303;53.446;9.988;2022-09-09T15:58:55;3.13;;;2.63;;
16387;SDS011;8303;53.446;9.988;2022-09-09T16:01:23;3.55;;;2.00;;
16387;SDS011;8303;53.446;9.988;2022-09-09T16:03:51;3.50;;;2.28;;
16387;SDS011;8303;53.446;9.988;2022-09-09T16:06:18;2.78;;;2.40;;
16387;SDS011;8303;53.446;9.988;2022-09-09T16:08:47;3.25;;;2.53;;
16387;SDS011;8303;53.446;9.988;2022-09-09T16:11:17;3.33;;;2.60;;
16387;SDS011;8303;53.446;9.988;2022-09-09T16:13:47;2.63;;;2.30;;
16387;SDS011;8303;53.446;9.988;2022-09-09T16:16:16;2.78;;;2.20;;
16387;SDS011;8303;53.446;9.988;2022-09-09T16:18:44;4.03;;;2.40;;
16387;SDS011;8303;53.446;9.988;2022-09-09T16:21:13;2.30;;;2.10;;
16387;SDS011;8303;53.446;9.988;2022-09-09T16:23:41;3.20;;;2.55;;
16387;SDS011;8303;53.446;9.988;2022-09-09T16:26:09;3.05;;;2.20;;
16387;SDS011;8303;53.446;9.988;2022-09-09T16:28:37;2.42;;;2.22;;
16387;SDS011;8303;53.446;9.988;2022-09-09T16:31:06;4.80;;;2.80;;
16387;SDS011;8303;53.446;9.988;2022-09-09T16:33:35;4.13;;;3.00;;
16387;SDS011;8303;53.446;9.988;2022-09-09T16:36:04;3.25;;;2.60;;
16387;SDS011;8303;53.446;9.988;2022-09-09T16:38:32;3.72;;;3.45;;
16387;SDS011;8303;53.446;9.988;2022-09-09T16:41:00;5.07;;;4.63;;
16387;SDS011;8303;53.446;9.988;2022-09-09T16:43:27;6.82;;;6.28;;
16387;SDS011;8303;53.446;9.988;2022-09-09T16:45:54;8.30;;;7.63;;
16387;SDS011;8303;53.446;9.988;2022-09-09T16:48:22;9.35;;;8.55;;
16387;SDS011;8303;53.446;9.988;2022-09-09T16:50:49;10.77;;;8.63;;
16387;SDS011;8303;53.446;9.988;2022-09-09T16:53:16;10.60;;;9.95;;
16387;SDS011;8303;53.446;9.988;2022-09-09T16:55:43;10.25;;;9.57;;
16387;SDS011;8303;53.446;9.988;2022-09-09T16:58:10;11.48;;;10.45;;
16387;SDS011;8303;53.446;9.988;2022-09-09T17:00:37;12.07;;;11.23;;
16387;SDS011;8303;53.446;9.988;2022-09-09T17:03:04;15.25;;;13.98;;
16387;SDS011;8303;53.446;9.988;2022-09-09T17:05:32;16.42;;;15.23;;
16387;SDS011;8303;53.446;9.988;2022-09-09T17:08:05;20.73;;;19.40;;
16387;SDS011;8303;53.446;9.988;2022-09-09T17:10:39;22.95;;;21.52;;
16387;SDS011;8303;53.446;9.988;2022-09-09T17:13:06;27.35;;;25.65;;
16387;SDS011;8303;53.446;9.988;2022-09-09T17:15:33;36.72;;;34.60;;
16387;SDS011;8303;53.446;9.988;2022-09-09T17:18:07;43.50;;;41.08;;
16387;SDS011;8303;53.446;9.988;2022-09-09T17:20:36;56.10;;;52.72;;
16387;SDS011;8303;53.446;9.988;2022-09-09T17:23:04;58.40;;;55.00;;
16387;SDS011;8303;53.446;9.988;2022-09-09T17:25:31;52.37;;;49.47;;
16387;SDS011;8303;53.446;9.988;2022-09-09T17:27:58;58.70;;;55.37;;
16387;SDS011;8303;53.446;9.988;2022-09-09T17:30:27;56.47;;;52.97;;
16387;SDS011;8303;53.446;9.988;2022-09-09T17:32:54;49.63;;;46.83;;
16387;SDS011;8303;53.446;9.988;2022-09-09T17:35:21;49.17;;;46.27;;
16387;SDS011;8303;53.446;9.988;2022-09-09T17:37:49;54.80;;;51.63;;
16387;SDS011;8303;53.446;9.988;2022-09-09T17:40:16;49.07;;;46.10;;
16387;SDS011;8303;53.446;9.988;2022-09-09T17:42:43;54.63;;;51.43;;
16387;SDS011;8303;53.446;9.988;2022-09-09T17:45:10;57.00;;;53.87;;
16387;SDS011;8303;53.446;9.988;2022-09-09T17:47:37;66.77;;;62.87;;
16387;SDS011;8303;53.446;9.988;2022-09-09T17:50:05;93.40;;;88.03;;
16387;SDS011;8303;53.446;9.988;2022-09-09T17:52:33;195.17;;;183.60;;
16387;SDS011;8303;53.446;9.988;2022-09-09T17:55:01;173.30;;;163.17;;
16387;SDS011;8303;53.446;9.988;2022-09-09T17:57:28;103.47;;;97.30;;
16387;SDS011;8303;53.446;9.988;2022-09-09T17:59:56;85.33;;;80.03;;
16387;SDS011;8303;53.446;9.988;2022-09-09T18:02:23;69.20;;;65.23;;
16387;SDS011;8303;53.446;9.988;2022-09-09T18:04:50;56.10;;;52.77;;
16387;SDS011;8303;53.446;9.988;2022-09-09T18:07:17;68.13;;;64.00;;
16387;SDS011;8303;53.446;9.988;2022-09-09T18:09:44;64.53;;;60.47;;
16387;SDS011;8303;53.446;9.988;2022-09-09T18:12:13;46.80;;;44.00;;
16387;SDS011;8303;53.446;9.988;2022-09-09T18:14:40;44.53;;;41.60;;
16387;SDS011;8303;53.446;9.988;2022-09-09T18:17:07;44.90;;;42.23;;
16387;SDS011;8303;53.446;9.988;2022-09-09T18:19:35;53.80;;;50.37;;
16387;SDS011;8303;53.446;9.988;2022-09-09T18:22:02;46.60;;;43.67;;
16387;SDS011;8303;53.446;9.988;2022-09-09T18:24:31;54.93;;;51.53;;
16387;SDS011;8303;53.446;9.988;2022-09-09T18:26:58;56.63;;;53.13;;
16387;SDS011;8303;53.446;9.988;2022-09-09T18:29:26;48.17;;;45.10;;
16387;SDS011;8303;53.446;9.988;2022-09-09T18:31:54;46.70;;;43.50;;
16387;SDS011;8303;53.446;9.988;2022-09-09T18:34:23;48.53;;;45.67;;
16387;SDS011;8303;53.446;9.988;2022-09-09T18:36:52;49.47;;;46.47;;
16387;SDS011;8303;53.446;9.988;2022-09-09T18:39:21;57.90;;;54.33;;
16387;SDS011;8303;53.446;9.988;2022-09-09T18:41:51;71.63;;;67.17;;
16387;SDS011;8303;53.446;9.988;2022-09-09T18:44:21;80.30;;;75.60;;
16387;SDS011;8303;53.446;9.988;2022-09-09T18:46:51;79.57;;;74.77;;
16387;SDS011;8303;53.446;9.988;2022-09-09T18:49:20;96.13;;;90.43;;
16387;SDS011;8303;53.446;9.988;2022-09-09T18:51:49;87.20;;;81.57;;
16387;SDS011;8303;53.446;9.988;2022-09-09T18:54:17;90.63;;;85.20;;
16387;SDS011;8303;53.446;9.988;2022-09-09T18:56:46;96.50;;;90.63;;
16387;SDS011;8303;53.446;9.988;2022-09-09T18:59:14;72.37;;;68.10;;
16387;SDS011;8303;53.446;9.988;2022-09-09T19:01:43;81.80;;;76.63;;
16387;SDS011;8303;53.446;9.988;2022-09-09T19:04:13;79.73;;;74.87;;
16387;SDS011;8303;53.446;9.988;2022-09-09T19:06:41;82.77;;;77.90;;
16387;SDS011;8303;53.446;9.988;2022-09-09T19:09:11;101.87;;;95.67;;
16387;SDS011;8303;53.446;9.988;2022-09-09T19:11:40;96.50;;;90.43;;
16387;SDS011;8303;53.446;9.988;2022-09-09T19:14:09;89.43;;;84.03;;
16387;SDS011;8303;53.446;9.988;2022-09-09T19:16:38;91.80;;;86.20;;
16387;SDS011;8303;53.446;9.988;2022-09-09T19:19:06;90.23;;;84.73;;
16387;SDS011;8303;53.446;9.988;2022-09-09T19:21:38;79.77;;;74.83;;
16387;SDS011;8303;53.446;9.988;2022-09-09T19:24:07;77.33;;;72.43;;
16387;SDS011;8303;53.446;9.988;2022-09-09T19:26:39;68.60;;;64.30;;
16387;SDS011;8303;53.446;9.988;2022-09-09T19:29:10;73.53;;;68.93;;
16387;SDS011;8303;53.446;9.988;2022-09-09T19:31:39;69.90;;;65.43;;
16387;SDS011;8303;53.446;9.988;2022-09-09T19:34:06;82.57;;;77.50;;
16387;SDS011;8303;53.446;9.988;2022-09-09T19:36:33;82.77;;;77.50;;
16387;SDS011;8303;53.446;9.988;2022-09-09T19:39:03;72.57;;;67.70;;
16387;SDS011;8303;53.446;9.988;2022-09-09T19:41:31;64.87;;;60.70;;
16387;SDS011;8303;53.446;9.988;2022-09-09T19:43:59;67.37;;;63.03;;
16387;SDS011;8303;53.446;9.988;2022-09-09T19:46:32;57.13;;;53.47;;
16387;SDS011;8303;53.446;9.988;2022-09-09T19:49:00;62.93;;;59.00;;